createdAt,value
2023-09-20T00:02:13.946Z,100.00
2023-09-20T00:04:41.837Z,100.00
2023-09-20T00:07:08.720Z,100.00
2023-09-20T00:09:36.213Z,100.00
2023-09-20T00:12:03.537Z,100.00
2023-09-20T00:14:30.695Z,98.65
2023-09-20T00:16:58.887Z,100.00
2023-09-20T00:19:25.688Z,100.00
2023-09-20T00:21:52.458Z,100.00
2023-09-20T00:24:19.178Z,99.37
2023-09-20T00:26:45.933Z,100.00
2023-09-20T00:29:12.741Z,100.00
2023-09-20T00:31:39.703Z,99.90
2023-09-20T00:34:06.551Z,100.00
2023-09-20T00:36:33.687Z,100.00
2023-09-20T00:39:02.124Z,100.00
2023-09-20T00:41:29.381Z,100.00
2023-09-20T00:43:56.428Z,100.00
2023-09-20T00:46:25.148Z,100.00
2023-09-20T00:48:52.735Z,100.00
2023-09-20T00:51:23.467Z,100.00
2023-09-20T00:53:54.179Z,100.00
2023-09-20T00:56:22.561Z,100.00
2023-09-20T00:58:52.522Z,100.00
2023-09-20T01:01:20.194Z,100.00
2023-09-20T01:03:49.056Z,100.00
2023-09-20T01:06:21.198Z,100.00
2023-09-20T01:08:48.333Z,100.00
2023-09-20T01:11:16.842Z,100.00
2023-09-20T01:13:45.229Z,100.00
2023-09-20T01:16:14.417Z,100.00
2023-09-20T01:18:41.444Z,100.00
2023-09-20T01:21:08.554Z,100.00
2023-09-20T01:23:36.195Z,100.00
2023-09-20T01:26:05.064Z,100.00
2023-09-20T01:28:31.970Z,100.00
2023-09-20T01:31:01.752Z,100.00
2023-09-20T01:33:28.851Z,100.00
2023-09-20T01:35:55.911Z,100.00
2023-09-20T01:38:22.843Z,100.00
2023-09-20T01:40:49.549Z,100.00
2023-09-20T01:43:16.538Z,100.00
2023-09-20T01:45:44.951Z,100.00
2023-09-20T01:48:13.195Z,100.00
2023-09-20T01:50:43.197Z,100.00
2023-09-20T01:53:12.382Z,100.00
2023-09-20T01:55:43.998Z,100.00
2023-09-20T01:58:14.880Z,100.00
2023-09-20T02:00:42.748Z,97.50
2023-09-20T02:03:19.263Z,98.65
2023-09-20T02:05:49.241Z,96.31
2023-09-20T02:08:17.902Z,92.55
2023-09-20T02:10:46.397Z,92.27
2023-09-20T02:13:14.705Z,91.54
2023-09-20T02:15:42.652Z,94.08
2023-09-20T02:18:10.582Z,97.99
2023-09-20T02:20:39.449Z,98.00
2023-09-20T02:23:07.890Z,92.13
2023-09-20T02:25:35.002Z,90.69
2023-09-20T02:28:02.595Z,89.93
2023-09-20T02:30:33.004Z,91.13
2023-09-20T02:33:03.901Z,89.95
2023-09-20T02:35:31.191Z,90.15
2023-09-20T02:38:00.550Z,88.65
2023-09-20T02:40:28.457Z,88.93
2023-09-20T02:43:04.218Z,92.02
2023-09-20T02:45:31.353Z,94.14
2023-09-20T02:48:04.322Z,95.68
2023-09-20T02:50:31.241Z,92.88
2023-09-20T02:52:58.104Z,90.75
2023-09-20T02:55:25.208Z,92.86
2023-09-20T02:57:53.583Z,91.86
2023-09-20T03:00:23.290Z,89.59
2023-09-20T03:02:55.087Z,87.87
2023-09-20T03:05:25.700Z,93.70
2023-09-20T03:07:54.606Z,95.66
2023-09-20T03:10:22.463Z,89.39
2023-09-20T03:12:53.026Z,87.52
2023-09-20T03:15:23.107Z,93.23
2023-09-20T03:17:55.204Z,99.15
2023-09-20T03:20:25.242Z,96.06
2023-09-20T03:23:00.647Z,95.22
2023-09-20T03:25:39.065Z,94.08
2023-09-20T03:28:14.028Z,93.66
2023-09-20T03:30:41.235Z,93.24
2023-09-20T03:33:10.464Z,92.34
2023-09-20T03:35:38.805Z,92.53
2023-09-20T03:38:06.610Z,92.27
2023-09-20T03:40:33.606Z,95.64
2023-09-20T03:43:08.641Z,95.39
2023-09-20T03:45:39.710Z,99.03
2023-09-20T03:48:07.372Z,97.55
2023-09-20T03:50:34.405Z,97.10
2023-09-20T03:53:04.256Z,94.54
2023-09-20T03:55:31.170Z,94.85
2023-09-20T03:57:58.060Z,95.36
2023-09-20T04:00:28.510Z,91.55
2023-09-20T04:02:57.964Z,92.04
2023-09-20T04:05:39.677Z,94.89
2023-09-20T04:08:13.172Z,95.48
2023-09-20T04:10:42.315Z,92.23
2023-09-20T04:13:09.815Z,94.93
2023-09-20T04:15:38.916Z,91.34
2023-09-20T04:18:06.259Z,92.34
2023-09-20T04:20:34.030Z,93.70
2023-09-20T04:23:01.457Z,91.60
2023-09-20T04:25:28.421Z,91.94
2023-09-20T04:27:55.380Z,90.62
2023-09-20T04:30:23.005Z,91.44
2023-09-20T04:32:50.305Z,91.49
2023-09-20T04:35:33.330Z,93.23
2023-09-20T04:38:00.623Z,93.12
2023-09-20T04:40:27.555Z,91.96
2023-09-20T04:42:54.652Z,92.58
2023-09-20T04:45:23.505Z,95.32
2023-09-20T04:47:51.676Z,95.14
2023-09-20T04:50:18.816Z,91.88
2023-09-20T04:52:47.891Z,92.25
2023-09-20T04:55:16.363Z,89.65
2023-09-20T04:57:43.180Z,88.07
2023-09-20T05:00:10.395Z,90.65
2023-09-20T05:02:37.423Z,89.22
2023-09-20T05:05:06.534Z,88.16
2023-09-20T05:07:34.939Z,89.63
2023-09-20T05:10:02.634Z,90.57
2023-09-20T05:12:30.435Z,91.43
2023-09-20T05:14:57.962Z,89.22
2023-09-20T05:17:24.998Z,91.23
2023-09-20T05:19:51.830Z,93.73
2023-09-20T05:22:19.031Z,94.64
2023-09-20T05:24:45.823Z,96.33
2023-09-20T05:27:12.536Z,94.79
2023-09-20T05:29:39.273Z,92.67
2023-09-20T05:32:06.745Z,90.33
2023-09-20T05:34:35.868Z,93.49
2023-09-20T05:37:02.683Z,89.15
2023-09-20T05:39:31.429Z,91.95
2023-09-20T05:41:59.572Z,89.45
2023-09-20T05:44:27.211Z,89.45
2023-09-20T05:46:54.179Z,87.55
2023-09-20T05:49:24.084Z,89.42
2023-09-20T05:51:53.903Z,94.09
2023-09-20T05:54:23.530Z,89.96
2023-09-20T05:56:52.354Z,88.55
2023-09-20T05:59:19.442Z,90.08
2023-09-20T06:01:46.292Z,83.92
2023-09-20T06:04:13.164Z,81.76
2023-09-20T06:06:40.149Z,84.44
2023-09-20T06:09:07.031Z,76.62
2023-09-20T06:11:33.797Z,74.34
2023-09-20T06:14:00.521Z,67.71
2023-09-20T06:16:27.414Z,63.42
2023-09-20T06:19:03.731Z,71.37
2023-09-20T06:21:34.032Z,84.35
2023-09-20T06:24:01.061Z,88.85
2023-09-20T06:26:28.433Z,93.05
2023-09-20T06:28:55.985Z,92.38
2023-09-20T06:31:22.773Z,91.56
2023-09-20T06:33:49.608Z,89.42
2023-09-20T06:36:22.087Z,89.57
2023-09-20T06:38:49.596Z,87.81
2023-09-20T06:41:17.258Z,90.85
2023-09-20T06:43:44.148Z,86.46
2023-09-20T06:46:11.619Z,88.45
2023-09-20T06:48:39.647Z,88.96
2023-09-20T06:51:06.855Z,83.28
2023-09-20T06:53:34.105Z,86.20
2023-09-20T06:56:01.337Z,81.64
2023-09-20T06:58:29.740Z,83.14
2023-09-20T07:00:56.877Z,80.61
2023-09-20T07:03:23.951Z,84.67
2023-09-20T07:05:52.321Z,83.50
2023-09-20T07:08:21.079Z,81.58
2023-09-20T07:10:47.888Z,81.89
2023-09-20T07:13:19.776Z,83.37
2023-09-20T07:15:47.805Z,79.99
2023-09-20T07:18:15.228Z,79.70
2023-09-20T07:20:44.598Z,82.61
2023-09-20T07:23:12.885Z,70.59
2023-09-20T07:25:40.825Z,71.66
2023-09-20T07:28:09.184Z,68.02
2023-09-20T07:30:42.094Z,65.83
2023-09-20T07:33:14.798Z,71.66
2023-09-20T07:35:49.560Z,65.28
2023-09-20T07:38:28.704Z,74.54
2023-09-20T07:41:16.009Z,68.59
2023-09-20T07:43:43.639Z,67.59
2023-09-20T07:46:11.257Z,71.40
2023-09-20T07:48:51.654Z,65.29
2023-09-20T07:51:22.312Z,64.50
2023-09-20T07:53:50.993Z,62.72
2023-09-20T07:56:18.460Z,60.93
2023-09-20T07:58:45.967Z,54.50
2023-09-20T08:01:23.163Z,53.34
2023-09-20T08:03:55.923Z,54.37
2023-09-20T08:06:26.836Z,51.64
2023-09-20T08:08:53.716Z,50.85
2023-09-20T08:11:22.349Z,50.75
2023-09-20T08:13:54.005Z,52.60
2023-09-20T08:16:23.051Z,52.17
2023-09-20T08:19:17.710Z,52.09
2023-09-20T08:21:47.155Z,52.39
2023-09-20T08:24:32.711Z,49.56
2023-09-20T08:27:19.555Z,48.65
2023-09-20T08:30:05.912Z,50.65
2023-09-20T08:32:51.565Z,49.23
2023-09-20T08:35:37.033Z,47.95
2023-09-20T08:38:22.649Z,48.31
2023-09-20T08:41:08.281Z,48.81
2023-09-20T08:43:54.121Z,48.14
2023-09-20T08:46:42.069Z,47.28
2023-09-20T08:49:27.635Z,48.00
2023-09-20T08:52:28.177Z,46.40
2023-09-20T08:55:15.657Z,46.13
2023-09-20T08:58:01.448Z,45.73
2023-09-20T09:00:32.320Z,47.67
2023-09-20T09:03:01.203Z,46.91
2023-09-20T09:05:30.241Z,47.65
2023-09-20T09:08:01.644Z,49.81
2023-09-20T09:10:29.004Z,49.31
2023-09-20T09:12:57.258Z,48.65
2023-09-20T09:15:25.319Z,47.90
2023-09-20T09:17:52.757Z,47.10
2023-09-20T09:20:21.365Z,46.81
2023-09-20T09:22:50.214Z,48.04
2023-09-20T09:25:25.795Z,46.98
2023-09-20T09:27:52.948Z,45.21
2023-09-20T09:30:19.840Z,46.17
2023-09-20T09:32:49.889Z,45.40
2023-09-20T09:35:27.352Z,44.90
2023-09-20T09:38:02.752Z,44.54
2023-09-20T09:40:30.353Z,45.50
2023-09-20T09:43:12.294Z,45.40
2023-09-20T09:45:39.844Z,44.66
2023-09-20T09:48:08.492Z,42.41
2023-09-20T09:50:40.099Z,44.55
2023-09-20T09:53:10.190Z,45.76
2023-09-20T09:55:39.420Z,46.34
2023-09-20T09:58:06.784Z,43.16
2023-09-20T10:00:34.474Z,41.77
2023-09-20T10:03:08.583Z,42.87
2023-09-20T10:05:36.617Z,41.67
2023-09-20T10:08:06.532Z,41.95
2023-09-20T10:10:34.366Z,44.05
2023-09-20T10:13:04.427Z,43.71
2023-09-20T10:15:34.616Z,41.45
2023-09-20T10:18:01.527Z,43.05
2023-09-20T10:21:06.238Z,43.05
2023-09-20T10:23:36.422Z,41.97
2023-09-20T10:26:03.385Z,43.33
2023-09-20T10:28:39.152Z,43.04
2023-09-20T10:31:06.403Z,41.93
2023-09-20T10:33:42.708Z,41.44
2023-09-20T10:36:19.539Z,43.36
2023-09-20T10:38:47.666Z,40.55
2023-09-20T10:41:16.232Z,39.40
2023-09-20T10:43:45.427Z,39.01
2023-09-20T10:46:19.771Z,39.81
2023-09-20T10:48:51.982Z,39.42
2023-09-20T10:51:50.725Z,41.56
2023-09-20T10:54:30.774Z,39.71
2023-09-20T10:57:12.205Z,39.80
2023-09-20T10:59:41.988Z,40.71
2023-09-20T11:02:11.115Z,40.19
2023-09-20T11:04:39.689Z,39.90
2023-09-20T11:07:08.234Z,40.66
2023-09-20T11:09:35.489Z,40.55
2023-09-20T11:12:10.705Z,40.25
2023-09-20T11:14:41.446Z,39.50
2023-09-20T11:17:09.992Z,39.55
2023-09-20T11:19:39.869Z,38.29
2023-09-20T11:22:06.965Z,37.61
2023-09-20T11:24:35.742Z,38.80
2023-09-20T11:27:02.502Z,39.10
2023-09-20T11:29:29.379Z,38.50
2023-09-20T11:31:58.099Z,37.74
2023-09-20T11:34:26.732Z,39.24
2023-09-20T11:36:58.330Z,39.90
2023-09-20T11:39:31.252Z,39.02
2023-09-20T11:42:02.752Z,39.92
2023-09-20T11:44:35.136Z,37.82
2023-09-20T11:47:02.243Z,39.78
2023-09-20T11:49:29.284Z,39.02
2023-09-20T11:51:59.253Z,39.61
2023-09-20T11:54:29.986Z,37.71
2023-09-20T11:57:00.869Z,40.19
2023-09-20T11:59:28.756Z,38.50
2023-09-20T12:01:56.404Z,38.89
2023-09-20T12:04:23.688Z,40.13
2023-09-20T12:06:52.282Z,38.51
2023-09-20T12:09:19.531Z,39.24
2023-09-20T12:11:46.721Z,38.78
2023-09-20T12:14:15.682Z,40.18
2023-09-20T12:16:48.586Z,41.19
2023-09-20T12:19:17.278Z,42.47
2023-09-20T12:21:47.224Z,41.75
2023-09-20T12:24:15.286Z,41.04
2023-09-20T12:26:42.705Z,39.67
2023-09-20T12:29:09.683Z,40.55
2023-09-20T12:31:36.447Z,39.07
2023-09-20T12:34:03.368Z,40.22
2023-09-20T12:36:33.365Z,38.53
2023-09-20T12:39:04.471Z,38.38
2023-09-20T12:41:31.250Z,39.08
2023-09-20T12:43:58.234Z,39.08
2023-09-20T12:46:25.970Z,38.33
2023-09-20T12:48:52.947Z,39.37
2023-09-20T12:51:19.775Z,39.59
2023-09-20T12:53:46.666Z,40.38
2023-09-20T12:56:14.856Z,39.26
2023-09-20T12:58:42.792Z,38.32
2023-09-20T13:01:13.844Z,38.58
2023-09-20T13:03:45.550Z,39.06
2023-09-20T13:06:15.886Z,39.28
2023-09-20T13:08:42.917Z,41.37
2023-09-20T13:11:11.826Z,39.45
2023-09-20T13:13:42.408Z,40.08
2023-09-20T13:16:15.786Z,39.06
2023-09-20T13:18:45.149Z,40.42
2023-09-20T13:21:11.889Z,40.42
2023-09-20T13:23:38.724Z,39.09
2023-09-20T13:26:05.936Z,40.81
2023-09-20T13:28:32.759Z,39.21
2023-09-20T13:31:01.283Z,39.04
2023-09-20T13:33:28.466Z,38.76
2023-09-20T13:35:57.437Z,38.74
2023-09-20T13:38:24.971Z,39.74
2023-09-20T13:40:52.621Z,38.84
2023-09-20T13:43:19.914Z,38.23
2023-09-20T13:45:46.898Z,38.66
2023-09-20T13:48:15.273Z,39.10
2023-09-20T13:50:43.592Z,39.79
2023-09-20T13:53:10.695Z,40.09
2023-09-20T13:55:37.521Z,39.90
2023-09-20T13:58:04.483Z,39.13
2023-09-20T14:00:31.430Z,39.57
2023-09-20T14:02:59.342Z,39.50
2023-09-20T14:05:27.845Z,39.26
2023-09-20T14:07:59.143Z,39.43
2023-09-20T14:10:35.560Z,39.41
2023-09-20T14:13:02.850Z,39.22
2023-09-20T14:15:31.358Z,40.91
2023-09-20T14:17:58.830Z,38.99
2023-09-20T14:20:28.637Z,39.41
2023-09-20T14:22:56.532Z,40.78
2023-09-20T14:25:25.553Z,40.17
2023-09-20T14:27:54.839Z,41.00
2023-09-20T14:30:22.527Z,42.99
2023-09-20T14:32:52.573Z,44.93
2023-09-20T14:35:19.610Z,44.91
2023-09-20T14:37:52.504Z,45.29
2023-09-20T14:40:23.684Z,46.39
2023-09-20T14:42:53.393Z,44.84
2023-09-20T14:45:23.805Z,43.88
2023-09-20T14:47:52.132Z,45.85
2023-09-20T14:50:20.105Z,43.47
2023-09-20T14:52:49.363Z,44.10
2023-09-20T14:55:19.665Z,43.76
2023-09-20T14:57:54.593Z,41.62
2023-09-20T15:00:23.737Z,42.13
2023-09-20T15:02:56.238Z,40.58
2023-09-20T15:05:25.227Z,41.97
2023-09-20T15:07:56.462Z,41.97
2023-09-20T15:10:27.773Z,42.83
2023-09-20T15:13:02.400Z,43.75
2023-09-20T15:15:30.656Z,42.95
2023-09-20T15:17:59.731Z,44.64
2023-09-20T15:20:28.564Z,44.86
2023-09-20T15:22:57.032Z,44.40
2023-09-20T15:25:26.340Z,44.44
2023-09-20T15:27:56.232Z,45.32
2023-09-20T15:30:24.674Z,44.37
2023-09-20T15:32:51.964Z,45.85
2023-09-20T15:35:19.529Z,45.57
2023-09-20T15:37:47.043Z,46.07
2023-09-20T15:40:16.707Z,45.98
2023-09-20T15:42:46.776Z,47.65
2023-09-20T15:45:15.261Z,48.22
2023-09-20T15:47:42.340Z,48.56
2023-09-20T15:50:10.178Z,50.52
2023-09-20T15:52:43.218Z,50.32
2023-09-20T15:55:12.432Z,51.32
2023-09-20T15:57:39.292Z,52.15
2023-09-20T16:00:14.919Z,52.27
2023-09-20T16:02:43.059Z,51.53
2023-09-20T16:05:15.543Z,52.07
2023-09-20T16:07:43.321Z,53.01
2023-09-20T16:10:15.577Z,53.32
2023-09-20T16:12:45.010Z,53.12
2023-09-20T16:15:18.738Z,53.59
2023-09-20T16:17:46.288Z,54.14
2023-09-20T16:20:15.967Z,55.15
2023-09-20T16:22:44.959Z,56.29
2023-09-20T16:25:13.411Z,55.85
2023-09-20T16:27:40.566Z,56.79
2023-09-20T16:30:08.260Z,62.67
2023-09-20T16:32:35.199Z,61.18
2023-09-20T16:35:02.168Z,62.20
2023-09-20T16:37:28.958Z,63.23
2023-09-20T16:39:57.853Z,65.09
2023-09-20T16:42:25.141Z,69.08
2023-09-20T16:44:51.877Z,71.55
2023-09-20T16:47:19.422Z,74.12
2023-09-20T16:49:46.562Z,74.53
2023-09-20T16:52:15.278Z,70.98
2023-09-20T16:54:44.651Z,68.59
2023-09-20T16:57:11.454Z,70.30
2023-09-20T16:59:38.660Z,72.75
2023-09-20T17:02:05.551Z,72.78
2023-09-20T17:04:34.548Z,77.63
2023-09-20T17:07:01.710Z,72.69
2023-09-20T17:09:30.659Z,74.71
2023-09-20T17:11:58.346Z,73.65
2023-09-20T17:14:25.562Z,79.17
2023-09-20T17:16:54.954Z,78.16
2023-09-20T17:19:22.080Z,77.04
2023-09-20T17:21:49.303Z,75.55
2023-09-20T17:24:16.085Z,81.37
2023-09-20T17:26:43.101Z,77.73
2023-09-20T17:29:09.929Z,85.27
2023-09-20T17:31:38.161Z,92.80
2023-09-20T17:34:06.859Z,93.05
2023-09-20T17:36:35.807Z,96.21
2023-09-20T17:39:03.372Z,97.06
2023-09-20T17:41:31.116Z,95.71
2023-09-20T17:43:59.459Z,95.11
2023-09-20T17:46:27.348Z,96.83
2023-09-20T17:48:55.169Z,97.09
2023-09-20T17:51:22.181Z,98.54
2023-09-20T17:53:49.114Z,96.55
2023-09-20T17:56:20.118Z,98.76
2023-09-20T17:58:47.771Z,98.19
2023-09-20T18:01:15.522Z,97.55
2023-09-20T18:03:46.703Z,98.79
2023-09-20T18:06:18.785Z,100.00
2023-09-20T18:08:50.139Z,100.00
2023-09-20T18:11:19.145Z,100.00
2023-09-20T18:13:46.213Z,100.00
2023-09-20T18:16:13.332Z,100.00
2023-09-20T18:18:41.415Z,100.00
2023-09-20T18:21:09.145Z,100.00
2023-09-20T18:23:38.868Z,100.00
2023-09-20T18:26:05.697Z,100.00
2023-09-20T18:28:32.858Z,100.00
2023-09-20T18:31:01.265Z,100.00
2023-09-20T18:33:28.257Z,100.00
2023-09-20T18:35:56.354Z,100.00
2023-09-20T18:38:23.951Z,99.77
2023-09-20T18:40:51.136Z,100.00
2023-09-20T18:43:20.649Z,100.00
2023-09-20T18:45:47.684Z,100.00
2023-09-20T18:48:16.091Z,100.00
2023-09-20T18:50:50.464Z,100.00
2023-09-20T18:53:19.049Z,100.00
2023-09-20T18:55:46.315Z,100.00
2023-09-20T18:58:15.361Z,100.00
2023-09-20T19:00:42.390Z,100.00
2023-09-20T19:03:10.391Z,100.00
2023-09-20T19:05:37.477Z,100.00
2023-09-20T19:08:04.677Z,100.00
2023-09-20T19:10:31.435Z,100.00
2023-09-20T19:12:58.281Z,100.00
2023-09-20T19:15:25.475Z,100.00
2023-09-20T19:17:52.367Z,100.00
2023-09-20T19:20:20.487Z,100.00
2023-09-20T19:22:47.887Z,100.00
2023-09-20T19:25:18.035Z,100.00
2023-09-20T19:27:49.460Z,100.00
2023-09-20T19:30:19.331Z,100.00
2023-09-20T19:32:47.068Z,100.00
2023-09-20T19:35:14.129Z,100.00
2023-09-20T19:37:40.926Z,100.00
2023-09-20T19:40:22.088Z,100.00
2023-09-20T19:42:51.884Z,100.00
2023-09-20T19:45:20.983Z,100.00
2023-09-20T19:47:49.401Z,100.00
2023-09-20T19:50:23.266Z,100.00
2023-09-20T19:52:51.254Z,100.00
2023-09-20T19:55:25.628Z,100.00
2023-09-20T19:57:54.341Z,100.00
2023-09-20T20:00:28.220Z,100.00
2023-09-20T20:03:00.090Z,100.00
2023-09-20T20:05:28.353Z,100.00
2023-09-20T20:07:58.421Z,100.00
2023-09-20T20:10:27.090Z,98.19
2023-09-20T20:12:57.900Z,100.00
2023-09-20T20:15:34.439Z,97.12
2023-09-20T20:18:02.423Z,98.77
2023-09-20T20:20:31.975Z,98.04
2023-09-20T20:23:06.706Z,96.79
2023-09-20T20:25:39.912Z,96.80
2023-09-20T20:28:34.423Z,97.40
2023-09-20T20:31:05.370Z,100.00
2023-09-20T20:33:35.371Z,100.00
2023-09-20T20:36:05.145Z,100.00
2023-09-20T20:38:32.724Z,100.00
2023-09-20T20:40:59.879Z,97.40
2023-09-20T20:43:29.024Z,96.42
2023-09-20T20:45:58.043Z,94.80
2023-09-20T20:48:25.433Z,95.75
2023-09-20T20:50:52.556Z,96.76
2023-09-20T20:53:22.229Z,95.00
2023-09-20T20:55:56.513Z,96.66
2023-09-20T20:58:25.413Z,95.14
2023-09-20T21:00:58.788Z,99.65
2023-09-20T21:03:26.187Z,94.03
2023-09-20T21:05:53.476Z,95.07
2023-09-20T21:08:22.335Z,94.17
2023-09-20T21:10:49.952Z,96.79
2023-09-20T21:13:16.769Z,100.00
2023-09-20T21:15:47.922Z,100.00
2023-09-20T21:18:19.933Z,99.22
2023-09-20T21:20:50.914Z,95.29
2023-09-20T21:23:18.794Z,100.00
2023-09-20T21:25:47.316Z,97.79
2023-09-20T21:28:14.596Z,97.48
2023-09-20T21:30:41.836Z,95.44
2023-09-20T21:33:11.528Z,99.43
2023-09-20T21:35:38.717Z,100.00
2023-09-20T21:38:08.582Z,100.00
2023-09-20T21:40:37.027Z,100.00
2023-09-20T21:43:04.047Z,97.54
2023-09-20T21:45:33.161Z,96.53
2023-09-20T21:48:00.503Z,98.72
2023-09-20T21:50:28.530Z,97.30
2023-09-20T21:52:59.104Z,100.00
2023-09-20T21:55:28.801Z,100.00
2023-09-20T21:57:57.352Z,98.54
2023-09-20T22:00:30.382Z,100.00
2023-09-20T22:03:06.188Z,94.87
2023-09-20T22:05:34.386Z,100.00
2023-09-20T22:08:03.381Z,100.00
2023-09-20T22:10:39.252Z,100.00
2023-09-20T22:13:09.522Z,98.19
2023-09-20T22:15:38.362Z,97.55
2023-09-20T22:18:24.059Z,100.00
2023-09-20T22:20:53.977Z,100.00
2023-09-20T22:23:21.500Z,100.00
2023-09-20T22:25:49.518Z,100.00
2023-09-20T22:28:18.995Z,96.65
2023-09-20T22:30:46.242Z,95.27
2023-09-20T22:33:13.837Z,93.51
2023-09-20T22:35:42.656Z,95.22
2023-09-20T22:38:10.662Z,95.22
2023-09-20T22:40:39.702Z,94.77
2023-09-20T22:43:06.642Z,94.04
2023-09-20T22:45:36.253Z,95.43
2023-09-20T22:48:06.820Z,94.64
2023-09-20T22:50:40.103Z,98.79
2023-09-20T22:53:09.680Z,97.41
2023-09-20T22:55:41.038Z,96.45
2023-09-20T22:58:15.662Z,100.00
2023-09-20T23:00:45.762Z,100.00
2023-09-20T23:03:14.309Z,100.00
2023-09-20T23:05:42.382Z,98.59
2023-09-20T23:08:09.528Z,100.00
2023-09-20T23:10:37.244Z,97.70
2023-09-20T23:13:04.654Z,100.00
2023-09-20T23:15:38.809Z,99.90
2023-09-20T23:18:11.657Z,97.79
2023-09-20T23:20:41.478Z,97.02
2023-09-20T23:23:12.506Z,98.93
2023-09-20T23:25:41.152Z,96.09
2023-09-20T23:28:11.125Z,97.43
2023-09-20T23:30:43.129Z,99.57
2023-09-20T23:33:13.921Z,100.00
2023-09-20T23:36:00.207Z,97.95
2023-09-20T23:38:40.271Z,100.00
2023-09-20T23:41:15.655Z,99.85
2023-09-20T23:43:44.094Z,99.80
2023-09-20T23:46:11.172Z,100.00
2023-09-20T23:48:39.405Z,100.00
2023-09-20T23:51:07.771Z,100.00
2023-09-20T23:53:37.785Z,100.00
2023-09-20T23:56:13.309Z,100.00
2023-09-20T23:58:41.188Z,100.00
